Time;durP1;ratioP1;P1;durP2;ratioP2;P2;SDS_P1;SDS_P2;PMS_P1;PMS_P2;Temp;Humidity;BMP_temperature;BMP_pressure;BME280_temperature;BME280_humidity;BME280_pressure;Samples;Min_cycle;Max_cycle;Signal;HPM_P1;HPM_P2
2021/07/24 00:01:15;;;;;;;4.10;3.90;;;19.90;76.60;;;;;;5043808;28;20183;-71
2021/07/24 00:03:42;;;;;;;4.70;4.30;;;19.90;77.10;;;;;;5045113;28;20243;-72
2021/07/24 00:06:08;;;;;;;5.70;5.07;;;19.90;77.30;;;;;;5045201;28;20675;-71
2021/07/24 00:08:34;;;;;;;4.90;4.60;;;19.80;77.60;;;;;;5045487;28;20212;-72
2021/07/24 00:11:09;;;;;;;4.93;4.57;;;19.80;77.90;;;;;;5045421;28;20233;-72
2021/07/24 00:13:36;;;;;;;5.13;4.60;;;19.80;77.90;;;;;;5044891;28;20293;-71
2021/07/24 00:16:02;;;;;;;5.00;4.63;;;19.80;78.30;;;;;;5050271;28;20195;-72
2021/07/24 00:18:28;;;;;;;5.25;4.85;;;19.70;78.30;;;;;;5048497;28;20180;-72
2021/07/24 00:20:54;;;;;;;4.82;4.50;;;19.70;78.30;;;;;;5048498;28;20238;-72
2021/07/24 00:23:19;;;;;;;5.53;5.03;;;19.70;78.60;;;;;;5049513;28;20211;-72
2021/07/24 00:25:45;;;;;;;5.60;5.20;;;19.60;78.90;;;;;;5048632;28;20201;-72
2021/07/24 00:28:11;;;;;;;5.03;4.57;;;19.60;79.20;;;;;;5048635;28;20581;-72
2021/07/24 00:30:41;;;;;;;5.78;4.47;;;19.60;79.60;;;;;;5043672;28;20183;-72
2021/07/24 00:33:08;;;;;;;5.95;5.45;;;19.50;79.20;;;;;;5049013;28;20621;-71
2021/07/24 00:35:34;;;;;;;5.53;4.88;;;19.50;79.30;;;;;;5046931;28;20665;-71
2021/07/24 00:38:01;;;;;;;5.15;4.75;;;19.40;79.40;;;;;;5048644;28;20745;-72
2021/07/24 00:40:29;;;;;;;5.10;4.60;;;19.40;79.70;;;;;;5047807;28;20262;-72
2021/07/24 00:42:56;;;;;;;5.15;4.78;;;19.40;79.80;;;;;;5045827;28;20219;-71
2021/07/24 00:45:23;;;;;;;5.88;5.40;;;19.30;79.90;;;;;;5046275;28;20236;-71
2021/07/24 00:47:52;;;;;;;9.48;4.75;;;19.30;79.90;;;;;;5049535;28;20183;-72
2021/07/24 00:50:18;;;;;;;4.88;4.47;;;19.30;80.00;;;;;;5051279;28;20635;-72
2021/07/24 00:52:45;;;;;;;5.68;5.18;;;19.20;80.00;;;;;;5047805;28;20283;-71
2021/07/24 00:55:13;;;;;;;5.50;5.07;;;19.20;80.30;;;;;;5048566;28;20191;-72
2021/07/24 00:57:44;;;;;;;5.55;5.13;;;19.20;80.10;;;;;;5048909;28;20176;-72
2021/07/24 01:00:11;;;;;;;4.75;4.47;;;19.10;80.60;;;;;;5047363;28;20195;-72
2021/07/24 01:02:38;;;;;;;4.68;4.43;;;19.10;80.80;;;;;;5048008;28;20188;-71
2021/07/24 01:05:05;;;;;;;5.05;4.72;;;19.10;80.90;;;;;;5047747;28;20237;-72
2021/07/24 01:07:37;;;;;;;6.97;5.32;;;19.00;81.00;;;;;;5048565;28;20183;-72
2021/07/24 01:10:03;;;;;;;5.35;4.90;;;19.00;80.70;;;;;;5048166;28;20232;-71
2021/07/24 01:12:29;;;;;;;5.70;5.13;;;19.00;80.90;;;;;;5048104;28;20356;-72
2021/07/24 01:14:56;;;;;;;5.18;4.75;;;19.00;80.70;;;;;;5046913;28;20314;-72
2021/07/24 01:17:21;;;;;;;5.63;5.22;;;19.00;80.90;;;;;;5047480;28;20259;-72
2021/07/24 01:19:47;;;;;;;6.90;5.75;;;18.90;80.80;;;;;;5047692;28;20313;-72
2021/07/24 01:22:12;;;;;;;5.30;4.90;;;18.90;80.90;;;;;;5047851;28;20187;-71
2021/07/24 01:24:38;;;;;;;4.82;4.53;;;18.90;80.90;;;;;;5048730;28;20219;-71
2021/07/24 01:27:08;;;;;;;5.90;5.18;;;18.90;80.90;;;;;;5047606;28;20238;-72
2021/07/24 01:29:35;;;;;;;4.93;4.53;;;18.90;80.80;;;;;;5048663;28;20796;-71
2021/07/24 01:32:01;;;;;;;4.60;4.30;;;18.80;80.90;;;;;;5047894;28;20226;-71
2021/07/24 01:34:27;;;;;;;5.07;4.72;;;18.80;81.10;;;;;;5047495;28;20245;-71
2021/07/24 01:36:53;;;;;;;5.47;4.97;;;18.80;81.10;;;;;;5050043;28;20179;-71
2021/07/24 01:39:18;;;;;;;5.43;4.93;;;18.80;81.20;;;;;;5044977;28;20245;-72
2021/07/24 01:41:45;;;;;;;4.97;4.57;;;18.80;81.30;;;;;;5047085;28;20183;-71
2021/07/24 01:44:12;;;;;;;6.07;4.88;;;18.70;81.20;;;;;;5046902;28;20223;-72
2021/07/24 01:46:38;;;;;;;5.20;4.70;;;18.70;81.60;;;;;;5047471;28;20278;-71
2021/07/24 01:55:00;;;;;;;4.22;3.92;;;18.50;82.10;;;;;;5049338;28;20241;-71
2021/07/24 01:57:29;;;;;;;5.00;4.22;;;18.50;81.40;;;;;;5046560;28;20199;-71
2021/07/24 01:59:59;;;;;;;4.78;4.43;;;18.40;81.80;;;;;;5047998;28;20660;-71
2021/07/24 02:02:29;;;;;;;4.68;4.38;;;18.40;81.80;;;;;;5047394;28;20680;-72
2021/07/24 02:04:58;;;;;;;4.80;4.40;;;18.30;81.70;;;;;;5048445;28;21400;-71
2021/07/24 02:07:25;;;;;;;4.93;4.53;;;18.30;81.70;;;;;;5047260;28;20188;-71
2021/07/24 02:09:51;;;;;;;4.45;4.15;;;18.30;81.70;;;;;;5045788;28;20187;-71
2021/07/24 02:12:17;;;;;;;4.50;4.20;;;18.30;81.70;;;;;;5045941;28;20188;-70
2021/07/24 02:14:42;;;;;;;5.00;4.70;;;18.20;81.70;;;;;;5047096;28;20226;-71
2021/07/24 02:17:08;;;;;;;4.55;3.95;;;18.20;82.10;;;;;;5047661;28;20270;-71
2021/07/24 02:19:34;;;;;;;5.68;4.35;;;18.20;82.50;;;;;;5048658;28;20179;-71
2021/07/24 02:22:00;;;;;;;4.80;4.45;;;18.20;82.70;;;;;;5046927;28;20195;-71
2021/07/24 02:24:26;;;;;;;4.90;4.15;;;18.20;83.10;;;;;;5047527;28;20219;-71
2021/07/24 02:26:52;;;;;;;5.55;4.15;;;18.20;83.60;;;;;;5046794;28;20250;-71
2021/07/24 02:29:17;;;;;;;5.25;4.78;;;18.20;83.40;;;;;;5048178;28;20196;-71
2021/07/24 02:31:44;;;;;;;4.63;4.32;;;18.10;83.60;;;;;;5047672;28;20193;-71
2021/07/24 02:34:09;;;;;;;5.03;4.65;;;18.10;83.70;;;;;;5047419;28;20267;-71
2021/07/24 02:36:35;;;;;;;6.03;4.90;;;18.00;84.00;;;;;;5045115;28;20279;-70
2021/07/24 02:39:01;;;;;;;6.63;4.97;;;18.00;83.80;;;;;;5046274;28;20180;-70
2021/07/24 02:41:26;;;;;;;4.30;4.00;;;17.90;84.10;;;;;;5047595;28;20183;-71
2021/07/24 02:43:52;;;;;;;4.78;4.47;;;17.90;84.30;;;;;;5044981;28;20243;-71
2021/07/24 02:46:20;;;;;;;4.53;4.22;;;17.80;84.50;;;;;;5047926;28;20207;-71
2021/07/24 02:48:46;;;;;;;5.57;5.07;;;17.80;84.00;;;;;;5046314;28;20191;-70
2021/07/24 02:51:14;;;;;;;5.07;4.55;;;17.80;84.30;;;;;;5045539;28;20708;-71
2021/07/24 02:53:40;;;;;;;6.10;4.35;;;17.70;84.80;;;;;;5045463;28;20795;-71
2021/07/24 02:56:06;;;;;;;4.80;4.40;;;;;;;;;;5042085;28;20274;-72
2021/07/24 02:58:31;;;;;;;5.32;4.60;;;17.60;84.80;;;;;;5045751;28;20190;-71
2021/07/24 03:00:57;;;;;;;4.30;4.00;;;17.60;84.60;;;;;;5046453;28;20642;-71
2021/07/24 03:03:23;;;;;;;4.97;4.65;;;17.50;85.00;;;;;;5045520;28;20712;-71
2021/07/24 03:05:49;;;;;;;4.32;4.13;;;17.50;84.70;;;;;;5045800;28;20191;-70
2021/07/24 03:08:16;;;;;;;5.28;4.78;;;17.40;84.90;;;;;;5044470;28;20564;-70
2021/07/24 03:10:42;;;;;;;4.55;4.15;;;17.30;84.80;;;;;;5045574;28;20183;-72
2021/07/24 03:13:08;;;;;;;8.48;3.92;;;17.30;84.90;;;;;;5046291;28;20179;-71
2021/07/24 03:15:33;;;;;;;5.13;4.68;;;17.30;85.00;;;;;;5046851;28;20583;-72
2021/07/24 03:17:59;;;;;;;4.80;4.43;;;17.20;85.30;;;;;;5045454;28;20719;-71
2021/07/24 03:20:25;;;;;;;5.22;4.07;;;17.20;85.30;;;;;;5047239;28;20184;-73
2021/07/24 03:22:50;;;;;;;6.38;4.68;;;17.20;85.40;;;;;;5046175;28;20206;-72
2021/07/24 03:25:16;;;;;;;5.00;4.60;;;17.10;85.60;;;;;;5041397;28;20198;-71
2021/07/24 03:27:42;;;;;;;5.03;4.18;;;17.10;85.80;;;;;;5042079;28;20175;-71
2021/07/24 03:30:08;;;;;;;5.10;4.55;;;17.10;85.50;;;;;;5046447;28;20269;-70
2021/07/24 03:32:34;;;;;;;10.30;5.25;;;17.10;85.70;;;;;;5045878;28;20754;-72
2021/07/24 03:34:59;;;;;;;4.28;3.97;;;17.10;85.70;;;;;;5046669;28;20220;-71
2021/07/24 03:37:25;;;;;;;4.32;4.13;;;17.10;85.60;;;;;;5045670;28;20850;-71
2021/07/24 03:39:51;;;;;;;5.75;4.30;;;17.10;85.70;;;;;;5045037;28;20196;-72
2021/07/24 03:42:16;;;;;;;5.68;5.03;;;17.10;86.00;;;;;;5043091;28;20257;-72
2021/07/24 03:44:42;;;;;;;7.15;4.82;;;17.10;86.10;;;;;;5046342;28;20294;-71
2021/07/24 03:47:08;;;;;;;4.80;4.35;;;17.10;86.00;;;;;;5046675;28;20167;-71
2021/07/24 03:49:34;;;;;;;5.28;4.82;;;17.10;86.10;;;;;;5046296;28;20179;-72
2021/07/24 03:51:59;;;;;;;4.85;4.15;;;17.10;86.10;;;;;;5046125;28;20183;-72
2021/07/24 03:54:27;;;;;;;4.80;4.40;;;17.10;85.80;;;;;;5043478;28;20260;-72
2021/07/24 03:56:53;;;;;;;4.63;4.38;;;17.10;86.00;;;;;;5044966;28;20192;-72
2021/07/24 03:59:19;;;;;;;5.32;4.72;;;17.10;85.90;;;;;;5046379;28;20190;-72
2021/07/24 04:01:44;;;;;;;6.65;4.97;;;17.10;85.80;;;;;;5044816;28;20183;-72
2021/07/24 04:04:13;;;;;;;4.60;3.92;;;17.10;86.90;;;;;;5045798;28;20207;-72
2021/07/24 04:06:39;;;;;;;5.05;3.88;;;17.10;85.60;;;;;;5040389;28;20191;-73
2021/07/24 04:09:07;;;;;;;4.72;4.40;;;17.10;85.70;;;;;;5042414;28;20199;-72
2021/07/24 04:11:34;;;;;;;4.90;4.50;;;17.20;86.20;;;;;;5046982;28;20215;-72
2021/07/24 04:14:00;;;;;;;5.80;5.25;;;17.20;85.40;;;;;;5044954;28;20622;-71
2021/07/24 04:16:27;;;;;;;5.22;4.72;;;17.20;85.30;;;;;;5047401;28;20184;-72
2021/07/24 04:18:54;;;;;;;4.40;4.20;;;17.20;85.50;;;;;;5044702;28;20665;-71
2021/07/24 04:21:20;;;;;;;5.22;4.88;;;17.20;85.50;;;;;;5045951;28;20212;-71
2021/07/24 04:23:46;;;;;;;4.10;3.90;;;17.30;85.90;;;;;;5046460;28;20231;-71
2021/07/24 04:26:11;;;;;;;4.97;4.57;;;17.30;85.30;;;;;;5045260;28;20187;-71
2021/07/24 04:28:37;;;;;;;4.50;4.30;;;17.30;85.20;;;;;;5035086;28;20199;-71
2021/07/24 04:31:03;;;;;;;4.28;4.00;;;17.30;85.60;;;;;;5042007;28;20180;-71
2021/07/24 04:33:29;;;;;;;4.85;4.45;;;17.40;85.40;;;;;;5045948;28;20188;-72
2021/07/24 04:35:55;;;;;;;4.85;4.45;;;17.40;85.60;;;;;;5043044;28;20191;-71
2021/07/24 04:38:21;;;;;;;5.13;4.82;;;17.40;85.10;;;;;;5044623;28;20184;-71
2021/07/24 04:40:46;;;;;;;4.32;3.97;;;17.50;84.90;;;;;;5045343;28;20172;-71
2021/07/24 04:43:13;;;;;;;3.95;3.65;;;17.50;84.80;;;;;;5045093;28;20300;-71
2021/07/24 04:45:45;;;;;;;3.90;3.70;;;17.50;84.50;;;;;;5043270;28;20292;-71
2021/07/24 04:48:11;;;;;;;3.45;3.15;;;17.60;83.80;;;;;;5044727;28;20183;-71
2021/07/24 04:50:46;;;;;;;4.20;3.90;;;17.70;84.10;;;;;;5045979;28;20183;-72
2021/07/24 04:53:12;;;;;;;3.47;3.38;;;17.70;83.70;;;;;;5038926;28;20211;-72
2021/07/24 04:55:40;;;;;;;4.18;3.85;;;17.80;84.00;;;;;;5044300;28;20218;-72
2021/07/24 04:58:07;;;;;;;3.60;3.40;;;17.80;83.80;;;;;;5044513;28;20735;-72
2021/07/24 05:00:37;;;;;;;3.78;3.58;;;17.90;83.70;;;;;;5047452;28;20731;-72
2021/07/24 05:03:03;;;;;;;4.25;3.90;;;17.90;83.30;;;;;;5047250;28;20215;-72
2021/07/24 05:05:29;;;;;;;3.78;3.58;;;18.00;83.50;;;;;;5049206;28;20220;-72
2021/07/24 05:07:55;;;;;;;4.53;3.83;;;18.10;83.30;;;;;;5048047;28;20246;-72
2021/07/24 05:10:21;;;;;;;5.88;4.47;;;18.10;83.30;;;;;;5058797;28;20436;-72
2021/07/24 05:12:47;;;;;;;3.90;3.63;;;18.20;83.10;;;;;;5047252;28;20246;-72
2021/07/24 05:15:12;;;;;;;3.78;3.58;;;18.20;83.00;;;;;;5045316;28;20209;-72
2021/07/24 05:17:40;;;;;;;3.58;3.35;;;18.30;82.80;;;;;;5046665;28;20195;-72
2021/07/24 05:20:06;;;;;;;4.85;4.45;;;18.30;82.70;;;;;;5045288;28;20718;-72
2021/07/24 05:22:32;;;;;;;6.25;3.67;;;18.40;82.60;;;;;;5047817;28;20215;-72
2021/07/24 05:24:58;;;;;;;4.80;4.50;;;18.40;83.40;;;;;;5047515;28;20670;-71
2021/07/24 05:27:23;;;;;;;4.63;4.32;;;18.40;82.90;;;;;;5048390;28;20297;-71
2021/07/24 05:29:49;;;;;;;3.85;3.65;;;18.40;82.10;;;;;;5047928;28;20653;-71
2021/07/24 05:32:14;;;;;;;4.20;3.90;;;18.50;82.20;;;;;;5048833;28;20176;-71
2021/07/24 05:34:40;;;;;;;4.28;4.03;;;18.50;82.10;;;;;;5054234;28;20183;-72
2021/07/24 05:37:06;;;;;;;3.63;3.10;;;18.60;82.00;;;;;;5048436;28;20186;-71
2021/07/24 05:39:31;;;;;;;4.15;3.85;;;18.60;82.30;;;;;;5048566;28;20183;-71
2021/07/24 05:41:57;;;;;;;4.63;4.20;;;18.70;82.20;;;;;;5046702;28;20262;-72
2021/07/24 05:44:23;;;;;;;3.95;3.65;;;18.80;81.60;;;;;;5048003;28;20223;-71
2021/07/24 05:46:48;;;;;;;4.25;3.95;;;18.80;81.40;;;;;;5048738;28;20267;-72
2021/07/24 05:49:14;;;;;;;4.53;3.83;;;18.90;81.30;;;;;;5047553;28;20187;-72
2021/07/24 05:51:40;;;;;;;4.50;4.10;;;19.00;81.10;;;;;;5048854;28;20191;-72
2021/07/24 05:54:09;;;;;;;3.88;3.67;;;19.00;80.80;;;;;;5048420;28;20656;-72
2021/07/24 05:56:35;;;;;;;4.15;3.88;;;19.10;80.40;;;;;;5045595;28;20258;-71
2021/07/24 05:59:01;;;;;;;4.53;4.20;;;19.20;80.20;;;;;;5043805;28;20191;-71
2021/07/24 06:01:27;;;;;;;4.80;4.30;;;19.30;80.00;;;;;;5048160;28;20271;-71
2021/07/24 06:03:52;;;;;;;7.13;4.55;;;19.30;80.20;;;;;;5046261;28;20775;-71
2021/07/24 06:06:19;;;;;;;4.55;4.18;;;19.40;80.20;;;;;;5042983;28;20636;-71
2021/07/24 06:08:44;;;;;;;7.20;4.70;;;19.50;80.10;;;;;;5047063;28;20187;-71
2021/07/24 06:11:10;;;;;;;8.35;4.63;;;19.50;80.40;;;;;;5043451;28;20963;-71
2021/07/24 06:13:36;;;;;;;5.20;4.80;;;19.60;80.00;;;;;;5046838;28;20192;-71
2021/07/24 06:16:01;;;;;;;5.05;4.65;;;19.60;79.30;;;;;;5044917;28;20736;-71
2021/07/24 06:18:27;;;;;;;5.13;4.70;;;19.60;78.80;;;;;;5046041;28;20648;-71
2021/07/24 06:20:53;;;;;;;4.57;4.22;;;19.70;79.10;;;;;;5048090;28;20187;-71
2021/07/24 06:23:19;;;;;;;5.22;4.55;;;19.70;79.00;;;;;;5044971;28;20211;-71
2021/07/24 06:25:46;;;;;;;3.72;3.47;;;19.80;79.10;;;;;;5046436;28;20984;-70
2021/07/24 06:28:13;;;;;;;3.88;3.53;;;19.90;79.10;;;;;;5048205;28;20200;-70
2021/07/24 06:30:39;;;;;;;4.18;3.88;;;20.00;79.10;;;;;;5046874;28;20199;-70
2021/07/24 06:33:05;;;;;;;3.80;3.53;;;20.10;79.20;;;;;;5047170;28;20180;-70
2021/07/24 06:35:31;;;;;;;3.55;3.38;;;20.10;78.90;;;;;;5046278;28;20241;-70
2021/07/24 06:37:57;;;;;;;3.88;3.50;;;20.20;78.60;;;;;;5043535;28;20184;-70
2021/07/24 06:40:23;;;;;;;4.10;3.80;;;20.30;78.60;;;;;;5051239;28;20727;-71
2021/07/24 06:42:49;;;;;;;4.00;3.70;;;20.40;78.20;;;;;;5046503;28;20186;-72
2021/07/24 06:45:14;;;;;;;4.40;4.00;;;20.40;77.90;;;;;;5056739;28;20175;-72
2021/07/24 06:47:40;;;;;;;3.45;3.28;;;20.50;77.70;;;;;;5056514;28;20202;-70
2021/07/24 06:50:06;;;;;;;4.78;4.38;;;20.60;77.90;;;;;;5052482;28;20184;-70
2021/07/24 06:52:32;;;;;;;4.57;4.28;;;20.70;77.50;;;;;;5047595;28;20237;-69
2021/07/24 06:54:58;;;;;;;4.45;4.05;;;20.70;77.40;;;;;;5045388;28;20175;-68
2021/07/24 06:57:23;;;;;;;4.50;4.20;;;20.80;77.00;;;;;;5040542;28;20672;-69
2021/07/24 06:59:49;;;;;;;4.55;4.15;;;20.90;77.10;;;;;;5043852;28;20176;-69
2021/07/24 07:02:15;;;;;;;4.13;3.83;;;21.00;76.80;;;;;;5052014;28;20183;-69
2021/07/24 07:04:41;;;;;;;4.93;3.45;;;21.10;76.30;;;;;;5045580;28;20211;-69
2021/07/24 07:07:07;;;;;;;4.97;3.55;;;21.20;76.40;;;;;;5045111;28;20183;-70
2021/07/24 07:09:34;;;;;;;5.03;4.47;;;21.20;76.40;;;;;;5046709;28;20203;-70
2021/07/24 07:12:00;;;;;;;3.80;3.50;;;21.30;76.40;;;;;;5045048;28;20421;-70
2021/07/24 07:14:26;;;;;;;3.80;3.50;;;21.40;76.30;;;;;;5046142;28;20298;-71
2021/07/24 07:16:52;;;;;;;3.60;3.33;;;21.50;75.60;;;;;;5051210;28;20518;-71
2021/07/24 07:19:19;;;;;;;4.13;3.85;;;21.60;75.20;;;;;;5046267;28;20188;-71
2021/07/24 07:21:45;;;;;;;3.50;3.40;;;21.60;74.30;;;;;;5042937;28;20569;-70
2021/07/24 07:24:10;;;;;;;3.40;3.20;;;21.70;73.70;;;;;;5043583;28;20227;-70
2021/07/24 07:26:36;;;;;;;3.85;3.60;;;21.70;73.20;;;;;;5045199;28;20180;-71
2021/07/24 07:29:05;;;;;;;3.42;3.22;;;21.70;73.40;;;;;;5043315;28;20226;-71
2021/07/24 07:31:32;;;;;;;3.60;3.40;;;21.80;73.70;;;;;;5044743;28;20258;-71
2021/07/24 07:33:57;;;;;;;5.18;3.72;;;21.80;73.70;;;;;;5046196;28;20202;-71
2021/07/24 07:36:23;;;;;;;3.67;3.47;;;21.90;73.90;;;;;;5045949;28;20184;-71
2021/07/24 07:38:49;;;;;;;3.35;3.05;;;21.90;74.00;;;;;;5044296;28;20610;-71
2021/07/24 07:41:15;;;;;;;3.30;3.15;;;22.00;74.30;;;;;;5042618;28;21113;-72
2021/07/24 07:43:41;;;;;;;4.00;3.70;;;22.10;74.10;;;;;;5040870;28;20235;-72
2021/07/24 07:46:07;;;;;;;4.75;3.50;;;22.20;74.20;;;;;;5042592;28;20226;-71
2021/07/24 07:48:34;;;;;;;4.07;3.75;;;22.30;74.30;;;;;;5051899;28;20184;-72
2021/07/24 07:51:01;;;;;;;3.95;3.53;;;22.40;74.10;;;;;;5045543;28;20191;-74
2021/07/24 07:53:26;;;;;;;3.65;3.35;;;22.50;73.90;;;;;;5042495;28;20267;-72
2021/07/24 07:55:52;;;;;;;3.30;2.97;;;22.60;72.40;;;;;;5041539;28;20755;-74
2021/07/24 07:58:18;;;;;;;3.60;3.30;;;22.60;71.80;;;;;;5043175;28;20187;-74
2021/07/24 08:00:43;;;;;;;3.40;3.05;;;22.70;72.60;;;;;;5045114;28;20202;-75
2021/07/24 08:03:09;;;;;;;3.53;2.72;;;22.80;73.00;;;;;;5050032;28;20266;-73
2021/07/24 08:05:35;;;;;;;3.63;3.38;;;22.90;73.20;;;;;;5044040;28;20274;-73
2021/07/24 08:08:03;;;;;;;3.58;3.38;;;22.90;72.40;;;;;;5046517;28;20191;-72
2021/07/24 08:10:28;;;;;;;4.55;3.60;;;23.00;72.30;;;;;;5045692;28;20183;-71
2021/07/24 08:12:54;;;;;;;3.35;3.17;;;23.10;72.30;;;;;;5042115;28;20233;-72
2021/07/24 08:15:20;;;;;;;3.80;3.50;;;23.20;70.90;;;;;;5043992;28;20199;-73
2021/07/24 08:17:46;;;;;;;5.18;3.55;;;23.30;70.60;;;;;;5045112;28;20282;-72
2021/07/24 08:20:12;;;;;;;4.90;3.35;;;23.30;70.40;;;;;;5044219;28;20241;-72
2021/07/24 08:22:38;;;;;;;2.42;2.38;;;23.40;70.10;;;;;;5042894;28;20188;-73
2021/07/24 08:25:05;;;;;;;2.70;2.50;;;23.50;70.20;;;;;;5039926;28;20361;-73
2021/07/24 08:27:34;;;;;;;3.33;3.13;;;23.60;70.40;;;;;;5042254;28;20662;-73
2021/07/24 08:30:00;;;;;;;3.05;2.83;;;23.70;70.40;;;;;;5043950;28;20188;-73
2021/07/24 08:32:25;;;;;;;3.30;3.20;;;23.80;69.90;;;;;;5043984;28;20236;-73
2021/07/24 08:34:52;;;;;;;3.03;2.78;;;23.90;68.50;;;;;;5045654;28;20188;-72
2021/07/24 08:37:18;;;;;;;2.92;2.83;;;24.00;68.90;;;;;;5047754;28;20188;-73
2021/07/24 08:39:44;;;;;;;2.90;2.80;;;24.10;68.20;;;;;;5047226;28;20207;-72
2021/07/24 08:42:44;;;;;;;2.78;2.67;;;24.20;68.50;;;;;;5045128;28;20722;-72
2021/07/24 08:45:13;;;;;;;2.92;2.72;;;24.30;68.70;;;;;;5049414;28;20870;-71
2021/07/24 08:47:39;;;;;;;3.20;3.00;;;24.40;68.40;;;;;;5046029;28;20184;-71
2021/07/24 08:50:07;;;;;;;2.15;2.15;;;24.50;68.60;;;;;;5046420;28;20187;-71
2021/07/24 08:52:34;;;;;;;3.28;3.17;;;24.60;68.00;;;;;;5044844;28;20195;-70
2021/07/24 08:55:01;;;;;;;2.72;2.63;;;24.80;68.10;;;;;;5045324;28;20229;-71
2021/07/24 08:57:34;;;;;;;4.22;2.70;;;24.90;67.70;;;;;;5046982;28;20179;-72
2021/07/24 09:00:17;;;;;;;2.65;2.55;;;25.00;66.30;;;;;;5046146;28;20639;-71
2021/07/24 09:02:45;;;;;;;3.42;2.75;;;25.10;66.40;;;;;;5045859;28;20213;-71
2021/07/24 09:05:13;;;;;;;3.08;2.97;;;25.20;66.70;;;;;;5047963;28;20255;-72
2021/07/24 09:07:41;;;;;;;3.17;2.95;;;25.30;66.40;;;;;;5047502;28;20254;-72
2021/07/24 09:10:08;;;;;;;3.20;2.97;;;25.40;66.10;;;;;;5041009;28;20586;-71
2021/07/24 09:12:36;;;;;;;3.13;3.03;;;25.60;65.90;;;;;;5048401;28;20686;-71
2021/07/24 09:15:04;;;;;;;2.78;2.67;;;25.70;65.60;;;;;;5043829;28;20738;-72
2021/07/24 09:17:30;;;;;;;3.10;2.90;;;25.90;64.70;;;;;;5045933;28;20187;-72
2021/07/24 09:19:56;;;;;;;3.05;2.95;;;26.00;64.80;;;;;;5046653;28;20183;-73
2021/07/24 09:22:33;;;;;;;3.03;2.83;;;26.20;63.80;;;;;;5048667;28;20760;-72
2021/07/24 09:25:13;;;;;;;3.20;3.10;;;26.20;64.50;;;;;;5048146;28;20585;-72
2021/07/24 09:27:55;;;;;;;2.78;2.67;;;26.30;64.00;;;;;;5046909;28;20582;-72
2021/07/24 09:30:23;;;;;;;2.97;2.88;;;26.40;64.50;;;;;;5046361;28;20191;-72
2021/07/24 09:33:10;;;;;;;2.72;2.63;;;26.30;64.60;;;;;;5048729;28;20669;-72
2021/07/24 09:35:40;;;;;;;5.75;2.70;;;26.30;64.40;;;;;;5048276;28;20219;-72
2021/07/24 09:38:26;;;;;;;2.65;2.50;;;26.30;64.30;;;;;;5036403;28;20183;-72
2021/07/24 09:40:52;;;;;;;2.65;2.50;;;26.20;64.20;;;;;;5042627;28;20183;-72
2021/07/24 09:43:31;;;;;;;2.50;2.50;;;26.20;64.60;;;;;;5036894;28;20211;-72
2021/07/24 09:46:20;;;;;;;2.75;2.55;;;26.10;65.10;;;;;;5039291;28;20267;-72
2021/07/24 09:48:48;;;;;;;2.80;2.60;;;26.10;65.70;;;;;;5047578;28;20692;-72
2021/07/24 09:51:15;;;;;;;6.38;2.17;;;26.10;66.40;;;;;;5040319;28;20571;-73
2021/07/24 09:53:45;;;;;;;2.72;2.30;;;26.10;66.20;;;;;;5044215;28;20191;-72
2021/07/24 09:56:17;;;;;;;2.53;2.42;;;26.20;66.60;;;;;;5035901;28;20234;-72
2021/07/24 09:58:43;;;;;;;2.67;2.47;;;26.30;66.40;;;;;;5048848;28;20374;-72
2021/07/24 10:01:11;;;;;;;2.42;2.35;;;26.40;66.10;;;;;;5054570;28;20184;-71
2021/07/24 10:03:40;;;;;;;2.67;2.58;;;26.60;66.00;;;;;;5048700;28;20235;-72
2021/07/24 10:06:13;;;;;;;2.72;2.63;;;26.80;65.70;;;;;;5058002;28;20216;-72
2021/07/24 10:08:44;;;;;;;2.78;2.60;;;26.90;65.30;;;;;;5036800;28;20176;-72
2021/07/24 10:11:10;;;;;;;2.20;2.20;;;27.20;64.70;;;;;;5043643;28;20748;-71
2021/07/24 10:13:40;;;;;;;2.75;2.65;;;27.60;64.10;;;;;;5046701;28;20262;-72
2021/07/24 10:16:07;;;;;;;3.03;2.58;;;27.90;63.70;;;;;;5052063;28;20196;-72
2021/07/24 10:18:33;;;;;;;2.67;2.58;;;28.10;63.00;;;;;;5047439;28;20175;-72
2021/07/24 10:20:59;;;;;;;3.33;2.50;;;28.30;62.90;;;;;;5045767;28;20180;-72
2021/07/24 10:23:25;;;;;;;2.67;2.47;;;28.40;62.20;;;;;;5046490;28;20273;-72
2021/07/24 10:25:57;;;;;;;2.70;2.47;;;28.50;61.50;;;;;;5055611;28;20187;-71
2021/07/24 10:28:40;;;;;;;2.63;2.63;;;28.50;60.50;;;;;;5052617;28;20190;-71
2021/07/24 10:31:42;;;;;;;2.40;2.33;;;28.60;59.80;;;;;;5047197;28;20196;-71
2021/07/24 10:34:09;;;;;;;2.47;2.47;;;28.70;59.00;;;;;;5054635;28;20266;-70
2021/07/24 10:36:40;;;;;;;3.17;2.97;;;29.10;57.60;;;;;;5062158;28;20687;-72
2021/07/24 10:39:08;;;;;;;3.67;3.50;;;29.30;58.00;;;;;;5038290;28;20175;-71
2021/07/24 10:41:36;;;;;;;3.65;3.38;;;29.60;57.30;;;;;;5043755;28;20188;-71
2021/07/24 10:44:04;;;;;;;3.25;3.05;;;29.60;56.60;;;;;;5056586;28;20215;-71
2021/07/24 10:46:45;;;;;;;3.35;3.05;;;29.70;56.20;;;;;;5047970;28;20180;-71
2021/07/24 10:49:23;;;;;;;3.20;3.00;;;29.90;56.70;;;;;;5041718;28;20175;-71
2021/07/24 10:51:56;;;;;;;2.92;2.83;;;30.00;56.50;;;;;;5051300;28;20463;-71
2021/07/24 10:54:22;;;;;;;3.13;2.95;;;30.00;56.90;;;;;;5042445;28;20187;-71
2021/07/24 10:56:49;;;;;;;2.92;2.78;;;29.90;56.10;;;;;;5041800;28;20241;-70
2021/07/24 10:59:14;;;;;;;5.10;2.72;;;29.80;56.40;;;;;;5046894;28;20223;-71
2021/07/24 11:01:51;;;;;;;3.35;3.15;;;29.70;57.70;;;;;;5050689;28;20203;-71
2021/07/24 11:04:38;;;;;;;3.33;3.22;;;29.40;58.10;;;;;;5053883;28;20225;-71
2021/07/24 11:07:12;;;;;;;3.00;2.90;;;29.30;57.90;;;;;;5048504;28;20185;-71
2021/07/24 11:09:42;;;;;;;3.35;3.10;;;29.10;58.60;;;;;;5047027;28;20183;-70
2021/07/24 11:12:11;;;;;;;3.58;3.47;;;28.80;58.60;;;;;;5046474;28;20599;-71
2021/07/24 11:14:42;;;;;;;3.22;3.13;;;28.60;59.60;;;;;;5047070;28;20270;-70
2021/07/24 11:17:08;;;;;;;5.45;2.88;;;28.40;59.80;;;;;;5052246;28;20184;-71
2021/07/24 11:19:34;;;;;;;3.35;3.25;;;28.20;60.10;;;;;;5045090;28;20810;-71
2021/07/24 11:22:19;;;;;;;3.63;3.38;;;28.20;60.70;;;;;;5047040;28;20195;-71
2021/07/24 11:25:04;;;;;;;3.60;3.40;;;28.10;60.80;;;;;;5046725;28;20207;-71
2021/07/24 11:27:35;;;;;;;3.50;3.40;;;28.10;61.90;;;;;;5047391;28;20183;-72
2021/07/24 11:30:07;;;;;;;4.05;3.78;;;28.20;62.20;;;;;;5047696;28;20277;-73
2021/07/24 11:32:40;;;;;;;3.40;3.30;;;28.20;62.30;;;;;;5047134;28;20829;-71
2021/07/24 11:35:09;;;;;;;3.38;3.28;;;28.40;62.50;;;;;;5045281;28;20781;-71
2021/07/24 11:37:35;;;;;;;3.97;3.67;;;29.10;62.00;;;;;;5045152;28;20175;-72
2021/07/24 11:40:05;;;;;;;3.75;3.55;;;30.10;60.20;;;;;;5050896;28;20192;-72
2021/07/24 11:42:31;;;;;;;3.13;3.03;;;31.10;59.10;;;;;;5043339;28;20262;-72
2021/07/24 11:44:56;;;;;;;5.00;2.97;;;32.30;57.00;;;;;;5045775;28;20356;-70
2021/07/24 11:47:22;;;;;;;3.38;3.17;;;33.30;54.40;;;;;;5046290;28;20180;-69
2021/07/24 11:49:48;;;;;;;3.15;2.90;;;34.30;52.80;;;;;;5043483;28;20914;-70
2021/07/24 11:52:14;;;;;;;5.47;3.00;;;35.20;51.70;;;;;;5044358;28;20562;-70
2021/07/24 11:54:39;;;;;;;3.65;3.03;;;35.60;50.70;;;;;;5044837;28;20218;-70
2021/07/24 11:57:06;;;;;;;2.97;2.90;;;35.40;50.20;;;;;;5040452;28;20677;-70
2021/07/24 11:59:34;;;;;;;3.45;3.35;;;35.40;48.90;;;;;;5045735;28;20175;-70
2021/07/24 12:02:01;;;;;;;2.80;2.70;;;35.10;48.70;;;;;;5045705;28;20179;-70
2021/07/24 12:04:27;;;;;;;3.10;3.00;;;35.00;50.80;;;;;;5047216;28;20238;-70
2021/07/24 12:06:58;;;;;;;3.00;2.92;;;35.20;49.40;;;;;;5041969;28;20179;-69
2021/07/24 12:09:25;;;;;;;3.15;2.95;;;35.40;51.10;;;;;;5045992;28;20668;-71
2021/07/24 12:11:59;;;;;;;2.80;2.22;;;35.80;50.40;;;;;;5061692;28;20182;-71
2021/07/24 12:14:27;;;;;;;2.83;2.55;;;36.40;48.60;;;;;;5057413;28;20201;-71
2021/07/24 12:17:03;;;;;;;2.83;2.72;;;37.20;49.80;;;;;;5058312;28;20683;-70
2021/07/24 12:19:36;;;;;;;3.42;3.33;;;38.00;46.70;;;;;;5054018;28;20209;-70
2021/07/24 12:22:11;;;;;;;2.80;2.70;;;38.30;45.20;;;;;;5045212;28;20182;-72
2021/07/24 12:24:37;;;;;;;2.67;2.58;;;38.10;45.00;;;;;;5046089;28;20210;-72
2021/07/24 12:27:08;;;;;;;3.15;3.05;;;38.40;46.60;;;;;;5047092;28;20684;-72
2021/07/24 12:29:52;;;;;;;3.25;2.92;;;38.40;44.40;;;;;;5047810;28;20240;-72
2021/07/24 12:32:21;;;;;;;2.78;2.67;;;38.10;44.60;;;;;;5046644;28;20197;-72
2021/07/24 12:34:48;;;;;;;2.70;2.60;;;38.40;47.20;;;;;;5046671;28;20179;-72
2021/07/24 12:37:31;;;;;;;2.88;2.88;;;38.60;44.80;;;;;;5051042;28;20206;-72
2021/07/24 12:39:57;;;;;;;3.75;3.30;;;39.00;45.10;;;;;;5045678;28;20185;-72
2021/07/24 12:42:34;;;;;;;3.63;2.95;;;39.30;45.60;;;;;;5050653;28;20942;-72
2021/07/24 12:45:00;;;;;;;3.10;3.00;;;39.70;44.50;;;;;;5046905;28;20966;-72
2021/07/24 12:47:35;;;;;;;2.45;2.45;;;39.90;45.10;;;;;;5049207;28;20291;-72
2021/07/24 12:50:15;;;;;;;2.88;2.78;;;40.10;42.70;;;;;;5046902;28;20178;-71
2021/07/24 12:52:56;;;;;;;3.45;3.35;;;40.50;43.00;;;;;;5055078;28;20194;-71
2021/07/24 12:55:23;;;;;;;2.80;2.80;;;40.70;41.90;;;;;;5049552;28;20248;-71
2021/07/24 12:57:50;;;;;;;4.03;3.83;;;40.70;43.40;;;;;;5045993;28;20191;-71